createdAt,value
2023-05-13T00:01:18.831Z,6.53
2023-05-13T00:03:45.728Z,6.53
2023-05-13T00:06:12.723Z,6.63
2023-05-13T00:08:39.457Z,6.82
2023-05-13T00:11:06.156Z,7.30
2023-05-13T00:13:32.783Z,7.10
2023-05-13T00:15:59.397Z,6.72
2023-05-13T00:18:26.298Z,6.78
2023-05-13T00:20:53.143Z,7.00
2023-05-13T00:23:19.734Z,7.50
2023-05-13T00:25:46.411Z,7.25
2023-05-13T00:28:15.056Z,7.35
2023-05-13T00:30:45.704Z,7.82
2023-05-13T00:33:12.654Z,7.72
2023-05-13T00:35:39.879Z,7.85
2023-05-13T00:38:07.293Z,7.07
2023-05-13T00:40:37.163Z,7.72
2023-05-13T00:43:04.308Z,7.47
2023-05-13T00:45:31.147Z,7.47
2023-05-13T00:47:58.884Z,7.90
2023-05-13T00:50:25.670Z,8.13
2023-05-13T00:52:52.333Z,7.53
2023-05-13T00:55:19.019Z,7.75
2023-05-13T00:57:45.779Z,8.30
2023-05-13T01:00:12.782Z,8.05
2023-05-13T01:02:46.278Z,8.75
2023-05-13T01:05:21.824Z,8.70
2023-05-13T01:08:02.544Z,7.65
2023-05-13T01:10:35.592Z,8.02
2023-05-13T01:13:08.903Z,8.63
2023-05-13T01:15:40.987Z,8.10
2023-05-13T01:18:15.309Z,7.70
2023-05-13T01:20:43.667Z,7.78
2023-05-13T01:23:11.417Z,8.32
2023-05-13T01:25:40.489Z,8.20
2023-05-13T01:28:08.330Z,7.55
2023-05-13T01:30:36.885Z,8.35
2023-05-13T01:33:05.144Z,8.63
2023-05-13T01:35:32.255Z,9.07
2023-05-13T01:37:59.770Z,7.60
2023-05-13T01:40:32.672Z,7.95
2023-05-13T01:43:06.145Z,8.40
2023-05-13T01:45:36.166Z,8.48
2023-05-13T01:48:03.001Z,7.72
2023-05-13T01:50:39.350Z,7.85
2023-05-13T01:53:06.851Z,8.52
2023-05-13T01:55:33.485Z,8.25
2023-05-13T01:58:02.398Z,8.60
2023-05-13T02:00:29.715Z,8.48
2023-05-13T02:02:56.494Z,8.07
2023-05-13T02:05:23.313Z,8.35
2023-05-13T02:07:51.340Z,9.05
2023-05-13T02:10:18.263Z,8.98
2023-05-13T02:12:45.147Z,8.70
2023-05-13T02:15:12.018Z,9.30
2023-05-13T02:17:38.780Z,8.98
2023-05-13T02:20:06.454Z,9.35
2023-05-13T02:22:33.185Z,9.52
2023-05-13T02:24:59.845Z,9.60
2023-05-13T02:27:26.574Z,10.02
2023-05-13T02:29:53.326Z,9.88
2023-05-13T02:32:20.007Z,9.38
2023-05-13T02:34:46.695Z,8.93
2023-05-13T02:37:13.838Z,9.63
2023-05-13T02:39:49.038Z,9.07
2023-05-13T02:42:18.670Z,9.73
2023-05-13T02:44:45.930Z,8.68
2023-05-13T02:47:14.202Z,9.50
2023-05-13T02:49:41.088Z,8.77
2023-05-13T02:52:07.901Z,10.73
2023-05-13T02:54:36.354Z,10.35
2023-05-13T02:57:03.003Z,9.27
2023-05-13T02:59:29.787Z,10.57
2023-05-13T03:01:57.134Z,10.00
2023-05-13T03:04:24.249Z,10.02
2023-05-13T03:06:51.084Z,10.38
2023-05-13T03:09:17.759Z,10.80
2023-05-13T03:11:44.375Z,10.07
2023-05-13T03:14:11.096Z,9.43
2023-05-13T03:16:38.431Z,10.88
2023-05-13T03:19:05.320Z,10.07
2023-05-13T03:21:32.097Z,9.25
2023-05-13T03:23:58.787Z,9.88
2023-05-13T03:26:26.044Z,10.48
2023-05-13T03:28:52.696Z,10.88
2023-05-13T03:31:19.739Z,11.05
2023-05-13T03:33:46.696Z,10.30
2023-05-13T03:36:13.622Z,11.13
2023-05-13T03:38:40.911Z,10.73
2023-05-13T03:41:08.139Z,10.93
2023-05-13T03:43:35.294Z,10.10
2023-05-13T03:46:07.301Z,10.73
2023-05-13T03:48:33.985Z,11.32
2023-05-13T03:51:02.442Z,11.55
2023-05-13T03:53:29.924Z,11.40
2023-05-13T03:55:57.567Z,11.80
2023-05-13T03:58:24.228Z,10.88
2023-05-13T04:00:50.958Z,12.30
2023-05-13T04:03:18.212Z,11.35
2023-05-13T04:05:48.800Z,12.82
2023-05-13T04:08:15.555Z,12.95
2023-05-13T04:10:43.631Z,12.93
2023-05-13T04:13:10.850Z,11.90
2023-05-13T04:15:37.565Z,12.15
2023-05-13T04:18:05.762Z,12.10
2023-05-13T04:20:32.507Z,12.73
2023-05-13T04:22:59.278Z,12.48
2023-05-13T04:25:25.865Z,12.13
2023-05-13T04:27:52.987Z,12.30
2023-05-13T04:30:26.218Z,11.88
2023-05-13T04:32:53.058Z,13.38
2023-05-13T04:35:20.435Z,12.48
2023-05-13T04:37:52.156Z,11.75
2023-05-13T04:40:19.914Z,13.07
2023-05-13T04:42:54.742Z,14.00
2023-05-13T04:45:26.435Z,13.55
2023-05-13T04:47:53.678Z,12.65
2023-05-13T04:50:21.725Z,15.68
2023-05-13T04:52:48.995Z,15.20
2023-05-13T04:55:16.991Z,14.40
2023-05-13T04:57:43.853Z,15.38
2023-05-13T05:00:11.580Z,14.55
2023-05-13T05:02:40.398Z,15.25
2023-05-13T05:05:07.328Z,16.35
2023-05-13T05:07:34.472Z,16.35
2023-05-13T05:10:01.669Z,16.95
2023-05-13T05:12:32.355Z,15.00
2023-05-13T05:14:59.053Z,15.63
2023-05-13T05:17:29.192Z,14.77
2023-05-13T05:19:56.386Z,16.08
2023-05-13T05:22:24.113Z,15.93
2023-05-13T05:24:50.873Z,16.20
2023-05-13T05:27:17.793Z,15.77
2023-05-13T05:29:44.749Z,15.25
2023-05-13T05:32:11.668Z,15.50
2023-05-13T05:34:38.556Z,15.77
2023-05-13T05:37:05.380Z,17.17
2023-05-13T05:39:35.193Z,16.33
2023-05-13T05:42:01.919Z,15.27
2023-05-13T05:44:28.601Z,15.15
2023-05-13T05:46:56.760Z,14.60
2023-05-13T05:49:23.815Z,15.00
2023-05-13T05:51:51.096Z,14.77
2023-05-13T05:54:17.725Z,13.73
2023-05-13T05:56:44.396Z,15.90
2023-05-13T05:59:11.058Z,16.95
2023-05-13T06:01:38.603Z,14.80
2023-05-13T06:04:06.721Z,15.45
2023-05-13T06:06:33.876Z,14.77
2023-05-13T06:09:00.631Z,15.15
2023-05-13T06:11:27.887Z,14.98
2023-05-13T06:13:54.491Z,13.95
2023-05-13T06:16:21.585Z,14.55
2023-05-13T06:18:48.370Z,14.60
2023-05-13T06:21:15.111Z,14.38
2023-05-13T06:23:42.409Z,13.77
2023-05-13T06:26:09.187Z,13.05
2023-05-13T06:28:36.019Z,12.70
2023-05-13T06:31:02.935Z,13.50
2023-05-13T06:33:29.785Z,13.55
2023-05-13T06:35:56.494Z,14.10
2023-05-13T06:38:24.464Z,12.68
2023-05-13T06:40:55.857Z,13.35
2023-05-13T06:43:28.908Z,11.70
2023-05-13T06:45:58.657Z,13.02
2023-05-13T06:48:26.966Z,13.50
2023-05-13T06:50:53.602Z,12.35
2023-05-13T06:53:20.263Z,12.63
2023-05-13T06:55:46.870Z,12.73
2023-05-13T06:58:13.722Z,12.15
2023-05-13T07:00:41.031Z,13.63
2023-05-13T07:03:08.535Z,12.52
2023-05-13T07:05:35.941Z,12.32
2023-05-13T07:08:06.807Z,12.77
2023-05-13T07:10:34.186Z,12.25
2023-05-13T07:13:02.065Z,12.60
2023-05-13T07:15:28.937Z,12.50
2023-05-13T07:17:55.664Z,11.98
2023-05-13T07:20:23.298Z,12.68
2023-05-13T07:22:50.686Z,11.55
2023-05-13T07:25:17.964Z,12.18
2023-05-13T07:27:44.873Z,11.93
2023-05-13T07:30:12.623Z,12.27
2023-05-13T07:32:39.618Z,12.00
2023-05-13T07:35:07.240Z,11.75
2023-05-13T07:37:33.853Z,11.52
2023-05-13T07:40:00.436Z,10.63
2023-05-13T07:42:29.889Z,12.23
2023-05-13T07:44:56.581Z,11.52
2023-05-13T07:47:23.477Z,11.55
2023-05-13T07:49:50.342Z,11.40
2023-05-13T07:52:16.983Z,10.98
2023-05-13T07:54:43.668Z,11.20
2023-05-13T07:57:10.298Z,11.52
2023-05-13T07:59:36.910Z,12.07
2023-05-13T08:02:03.527Z,11.55
2023-05-13T08:04:30.285Z,11.93
2023-05-13T08:06:57.007Z,10.68
2023-05-13T08:09:24.453Z,12.02
2023-05-13T08:11:51.198Z,11.13
2023-05-13T08:14:17.821Z,10.50
2023-05-13T08:16:44.435Z,11.40
2023-05-13T08:19:11.119Z,11.38
2023-05-13T08:21:37.755Z,10.88
2023-05-13T08:24:04.450Z,10.77
2023-05-13T08:26:31.108Z,10.60
2023-05-13T08:28:57.962Z,10.15
2023-05-13T08:31:27.503Z,10.25
2023-05-13T08:33:54.273Z,9.05
2023-05-13T08:36:21.911Z,9.48
2023-05-13T08:38:48.565Z,9.70
2023-05-13T08:41:15.594Z,9.43
2023-05-13T08:43:47.053Z,8.63
2023-05-13T08:46:16.813Z,8.52
2023-05-13T08:48:44.236Z,8.18
2023-05-13T08:51:11.231Z,8.70
2023-05-13T08:53:39.832Z,8.05
2023-05-13T08:56:08.312Z,8.50
2023-05-13T08:58:35.121Z,9.10
2023-05-13T09:01:02.892Z,9.32
2023-05-13T09:03:29.687Z,8.85
2023-05-13T09:05:56.448Z,8.45
2023-05-13T09:08:23.057Z,8.50
2023-05-13T09:10:50.045Z,7.25
2023-05-13T09:13:17.738Z,7.05
2023-05-13T09:15:44.999Z,7.40
2023-05-13T09:18:12.853Z,6.85
2023-05-13T09:20:39.600Z,7.10
2023-05-13T09:23:08.169Z,6.55
2023-05-13T09:25:35.763Z,6.90
2023-05-13T09:28:04.071Z,7.47
2023-05-13T09:30:40.647Z,6.70
2023-05-13T09:33:10.233Z,6.70
2023-05-13T09:35:39.549Z,6.22
2023-05-13T09:38:20.183Z,5.93
2023-05-13T09:40:54.904Z,5.95
2023-05-13T09:43:23.963Z,6.38
2023-05-13T09:45:58.164Z,5.38
2023-05-13T09:48:26.379Z,5.15
2023-05-13T09:50:53.738Z,5.50
2023-05-13T09:53:23.437Z,4.82
2023-05-13T09:55:56.969Z,4.70
2023-05-13T09:58:25.493Z,4.68
2023-05-13T10:00:52.563Z,4.60
2023-05-13T10:03:19.555Z,4.85
2023-05-13T10:05:46.534Z,4.40
2023-05-13T10:08:14.740Z,4.50
2023-05-13T10:10:42.530Z,5.00
2023-05-13T10:13:11.044Z,3.55
2023-05-13T10:15:48.900Z,3.78
2023-05-13T10:18:16.705Z,3.42
2023-05-13T10:20:44.287Z,4.03
2023-05-13T10:23:12.037Z,4.18
2023-05-13T10:25:38.873Z,3.78
2023-05-13T10:28:05.688Z,4.00
2023-05-13T10:30:35.906Z,3.55
2023-05-13T10:33:03.321Z,3.38
2023-05-13T10:35:37.499Z,3.92
2023-05-13T10:38:08.345Z,3.00
2023-05-13T10:40:43.769Z,3.67
2023-05-13T10:43:22.423Z,3.33
2023-05-13T10:45:51.039Z,3.30
2023-05-13T10:48:18.808Z,4.05
2023-05-13T10:50:56.711Z,3.22
2023-05-13T10:53:24.416Z,2.85
2023-05-13T10:55:56.723Z,2.70
2023-05-13T10:58:36.782Z,2.83
2023-05-13T11:01:25.731Z,2.78
2023-05-13T11:03:55.250Z,3.17
2023-05-13T11:06:24.341Z,3.65
2023-05-13T11:08:55.021Z,3.20
2023-05-13T11:11:22.808Z,3.15
2023-05-13T11:13:54.126Z,3.05
2023-05-13T11:16:21.255Z,3.00
2023-05-13T11:18:49.224Z,2.78
2023-05-13T11:21:16.576Z,3.20
2023-05-13T11:23:56.229Z,3.03
2023-05-13T11:26:23.046Z,2.53
2023-05-13T11:29:19.570Z,2.85
2023-05-13T11:31:48.673Z,3.38
2023-05-13T11:34:19.923Z,3.63
2023-05-13T11:36:58.182Z,3.00
2023-05-13T11:39:28.209Z,3.17
2023-05-13T11:41:57.332Z,3.38
2023-05-13T11:44:25.099Z,2.67
2023-05-13T11:47:02.582Z,2.88
2023-05-13T11:49:49.414Z,2.80
2023-05-13T11:52:19.137Z,2.80
2023-05-13T11:54:54.077Z,3.10
2023-05-13T11:57:26.823Z,2.67
2023-05-13T11:59:58.183Z,2.80
2023-05-13T12:02:29.657Z,2.80
2023-05-13T12:05:00.141Z,3.00
2023-05-13T12:07:27.246Z,3.10
2023-05-13T12:09:57.479Z,2.72
2023-05-13T12:12:24.703Z,2.92
2023-05-13T12:14:51.598Z,2.85
2023-05-13T12:17:19.057Z,3.40
2023-05-13T12:20:08.149Z,3.08
2023-05-13T12:22:35.084Z,3.00
2023-05-13T12:25:40.260Z,3.22
2023-05-13T12:28:06.896Z,3.00
2023-05-13T12:30:35.198Z,2.95
2023-05-13T12:33:02.011Z,3.03
2023-05-13T12:35:28.652Z,3.05
2023-05-13T12:38:02.200Z,2.70
2023-05-13T12:40:28.811Z,2.50
2023-05-13T12:43:02.160Z,2.63
2023-05-13T12:45:30.536Z,3.10
2023-05-13T12:47:58.261Z,2.75
2023-05-13T12:50:25.708Z,2.65
2023-05-13T12:52:53.252Z,2.85
2023-05-13T12:55:20.477Z,2.83
2023-05-13T12:57:59.563Z,2.65
2023-05-13T13:00:26.705Z,3.20
2023-05-13T13:02:54.240Z,2.40
2023-05-13T13:05:21.809Z,2.85
2023-05-13T13:07:48.875Z,2.97
2023-05-13T13:10:15.616Z,2.60
2023-05-13T13:12:42.680Z,2.85
2023-05-13T13:15:10.685Z,2.53
2023-05-13T13:17:37.805Z,2.00
2023-05-13T13:20:05.652Z,2.40
2023-05-13T13:22:32.571Z,2.35
2023-05-13T13:24:59.246Z,2.17
2023-05-13T13:27:29.356Z,2.00
2023-05-13T13:29:56.139Z,2.15
2023-05-13T13:32:22.930Z,2.13
2023-05-13T13:34:49.685Z,2.58
2023-05-13T13:37:16.380Z,2.60
2023-05-13T13:39:43.050Z,2.55
2023-05-13T13:42:09.685Z,2.60
2023-05-13T13:44:39.527Z,2.50
2023-05-13T13:47:06.271Z,2.35
2023-05-13T13:49:32.926Z,2.22
2023-05-13T13:51:59.558Z,2.47
2023-05-13T13:54:26.280Z,2.30
2023-05-13T13:56:52.919Z,2.60
2023-05-13T13:59:19.541Z,2.20
2023-05-13T14:01:46.902Z,2.53
2023-05-13T14:04:15.208Z,2.58
2023-05-13T14:06:42.469Z,2.53
2023-05-13T14:09:10.544Z,2.28
2023-05-13T14:11:37.393Z,2.83
2023-05-13T14:14:04.318Z,2.38
2023-05-13T14:16:31.147Z,2.22
2023-05-13T14:18:58.066Z,2.40
2023-05-13T14:21:24.789Z,2.10
2023-05-13T14:23:51.398Z,2.10
2023-05-13T14:26:18.200Z,2.22
2023-05-13T14:28:44.952Z,2.40
2023-05-13T14:31:11.671Z,2.33
2023-05-13T14:33:38.360Z,2.53
2023-05-13T14:36:05.822Z,1.98
2023-05-13T14:38:32.473Z,2.00
2023-05-13T14:40:59.149Z,2.45
2023-05-13T14:43:26.045Z,1.92
2023-05-13T14:45:52.661Z,2.30
2023-05-13T14:48:19.575Z,2.25
2023-05-13T14:50:46.962Z,2.92
2023-05-13T14:53:13.702Z,2.28
2023-05-13T14:55:40.421Z,2.72
2023-05-13T14:58:09.140Z,2.53
2023-05-13T15:00:39.779Z,2.20
2023-05-13T15:03:06.681Z,2.30
2023-05-13T15:05:33.597Z,2.47
2023-05-13T15:08:01.004Z,2.17
2023-05-13T15:10:27.690Z,2.03
2023-05-13T15:12:54.496Z,2.22
2023-05-13T15:15:21.149Z,2.17
2023-05-13T15:17:47.977Z,2.35
2023-05-13T15:20:14.680Z,2.53
2023-05-13T15:22:41.269Z,2.30
2023-05-13T15:25:08.258Z,2.83
2023-05-13T15:27:34.872Z,2.80
2023-05-13T15:30:01.765Z,2.30
2023-05-13T15:32:28.580Z,2.33
2023-05-13T15:34:55.550Z,1.90
2023-05-13T15:37:22.194Z,2.40
2023-05-13T15:39:48.929Z,2.28
2023-05-13T15:42:15.858Z,2.33
2023-05-13T15:44:42.914Z,2.42
2023-05-13T15:47:09.794Z,2.42
2023-05-13T15:49:36.521Z,2.03
2023-05-13T15:52:06.209Z,2.35
2023-05-13T15:54:34.295Z,2.20
2023-05-13T15:57:00.972Z,2.45
2023-05-13T15:59:27.582Z,2.30
2023-05-13T16:01:54.471Z,2.67
2023-05-13T16:04:21.195Z,3.15
2023-05-13T16:06:47.869Z,3.17
2023-05-13T16:09:14.573Z,3.10
2023-05-13T16:11:43.482Z,2.80
2023-05-13T16:14:10.160Z,3.10
2023-05-13T16:16:37.509Z,2.72
2023-05-13T16:19:04.419Z,3.10
2023-05-13T16:21:31.695Z,3.65
2023-05-13T16:23:58.485Z,3.40
2023-05-13T16:26:25.078Z,3.15
2023-05-13T16:28:52.064Z,3.15
2023-05-13T16:31:18.803Z,3.33
2023-05-13T16:33:45.432Z,3.38
2023-05-13T16:36:12.146Z,3.15
2023-05-13T16:38:41.323Z,3.00
2023-05-13T16:41:08.406Z,3.25
2023-05-13T16:43:35.056Z,3.00
2023-05-13T16:46:01.762Z,2.92
2023-05-13T16:48:28.591Z,3.35
2023-05-13T16:50:56.226Z,3.33
2023-05-13T16:53:23.094Z,3.13
2023-05-13T16:55:50.215Z,3.83
2023-05-13T16:58:17.173Z,3.85
2023-05-13T17:00:44.271Z,3.80
2023-05-13T17:03:13.362Z,3.80
2023-05-13T17:05:40.499Z,4.03
2023-05-13T17:08:07.127Z,4.20
2023-05-13T17:10:33.812Z,4.28
2023-05-13T17:13:00.980Z,4.32
2023-05-13T17:15:27.619Z,3.70
2023-05-13T17:17:54.261Z,3.65
2023-05-13T17:20:21.148Z,3.88
2023-05-13T17:22:48.785Z,3.92
2023-05-13T17:25:15.588Z,3.85
2023-05-13T17:27:42.283Z,4.00
2023-05-13T17:30:09.292Z,4.13
2023-05-13T17:32:35.995Z,3.67
2023-05-13T17:35:05.324Z,3.63
2023-05-13T17:37:31.912Z,3.40
2023-05-13T17:40:00.785Z,3.80
2023-05-13T17:42:29.022Z,3.25
2023-05-13T17:44:55.951Z,3.58
2023-05-13T17:47:22.576Z,3.60
2023-05-13T17:49:49.288Z,3.78
2023-05-13T17:52:15.949Z,3.70
2023-05-13T17:54:42.671Z,3.72
2023-05-13T17:57:11.068Z,3.70
2023-05-13T17:59:37.771Z,3.50
2023-05-13T18:02:04.628Z,3.45
2023-05-13T18:04:31.466Z,3.28
2023-05-13T18:06:58.133Z,4.07
2023-05-13T18:09:24.840Z,3.70
2023-05-13T18:11:51.732Z,3.83
2023-05-13T18:14:18.571Z,3.38
2023-05-13T18:16:45.503Z,3.40
2023-05-13T18:19:12.356Z,3.47
2023-05-13T18:21:39.144Z,3.88
2023-05-13T18:24:06.274Z,4.18
2023-05-13T18:26:32.845Z,3.97
2023-05-13T18:28:59.610Z,4.18
2023-05-13T18:31:26.404Z,4.30
2023-05-13T18:33:53.150Z,3.75
2023-05-13T18:36:19.772Z,4.45
2023-05-13T18:38:47.955Z,4.25
2023-05-13T18:41:15.021Z,4.15
2023-05-13T18:43:41.703Z,4.40
2023-05-13T18:46:08.847Z,4.68
2023-05-13T18:48:35.741Z,4.80
2023-05-13T18:51:02.484Z,42.92
2023-05-13T18:53:29.084Z,8.00
2023-05-13T18:55:55.827Z,9.95
2023-05-13T18:58:22.507Z,7.88
2023-05-13T19:00:49.145Z,4.60
2023-05-13T19:03:16.104Z,5.13
2023-05-13T19:05:42.950Z,6.35
2023-05-13T19:08:09.603Z,5.90
2023-05-13T19:10:40.032Z,6.43
2023-05-13T19:13:07.304Z,8.95
2023-05-13T19:15:34.048Z,7.13
2023-05-13T19:18:01.068Z,7.10
2023-05-13T19:20:28.514Z,7.03
2023-05-13T19:22:55.205Z,6.38
2023-05-13T19:25:21.936Z,6.53
2023-05-13T19:27:49.469Z,7.30
2023-05-13T19:30:16.168Z,7.18
2023-05-13T19:32:43.706Z,7.82
2023-05-13T19:35:11.435Z,7.95
2023-05-13T19:37:38.164Z,7.70
2023-05-13T19:40:05.729Z,9.07
2023-05-13T19:42:32.407Z,8.27
2023-05-13T19:44:59.055Z,7.43
2023-05-13T19:47:26.945Z,6.95
2023-05-13T19:49:53.732Z,7.80
2023-05-13T19:52:20.833Z,7.47
2023-05-13T19:54:47.453Z,7.15
2023-05-13T19:57:14.089Z,8.32
2023-05-13T19:59:41.768Z,7.88
2023-05-13T20:02:08.872Z,7.25
2023-05-13T20:04:36.188Z,7.53
2023-05-13T20:07:02.849Z,7.45
2023-05-13T20:09:29.841Z,7.00
2023-05-13T20:11:57.953Z,7.90
2023-05-13T20:14:27.588Z,7.28
2023-05-13T20:16:54.592Z,7.20
2023-05-13T20:19:21.370Z,6.95
2023-05-13T20:21:48.177Z,7.85
2023-05-13T20:24:15.109Z,7.40
2023-05-13T20:26:41.729Z,7.00
2023-05-13T20:29:08.490Z,7.35
2023-05-13T20:31:35.134Z,7.30
2023-05-13T20:34:03.330Z,7.18
2023-05-13T20:36:30.120Z,8.18
2023-05-13T20:38:56.964Z,7.72
2023-05-13T20:41:23.927Z,7.95
2023-05-13T20:43:50.519Z,8.50
2023-05-13T20:46:17.494Z,8.40
2023-05-13T20:48:44.305Z,8.57
2023-05-13T20:51:11.531Z,8.15
2023-05-13T20:53:38.134Z,8.38
2023-05-13T20:56:06.494Z,7.72
2023-05-13T20:58:33.140Z,8.32
2023-05-13T21:00:59.807Z,8.15
2023-05-13T21:03:26.714Z,8.35
2023-05-13T21:05:53.643Z,8.00
2023-05-13T21:08:20.458Z,8.93
2023-05-13T21:10:47.089Z,7.97
2023-05-13T21:13:13.674Z,9.77
2023-05-13T21:15:40.414Z,8.60
2023-05-13T21:18:07.122Z,9.00
2023-05-13T21:20:33.879Z,8.63
2023-05-13T21:23:01.338Z,9.05
2023-05-13T21:25:28.086Z,9.35
2023-05-13T21:27:54.940Z,8.45
2023-05-13T21:30:21.780Z,9.20
2023-05-13T21:32:48.564Z,9.27
2023-05-13T21:35:15.764Z,9.40
2023-05-13T21:37:42.469Z,9.48
2023-05-13T21:40:09.515Z,9.45
2023-05-13T21:42:36.224Z,9.55
2023-05-13T21:45:03.322Z,9.93
2023-05-13T21:47:30.074Z,10.30
2023-05-13T21:49:56.746Z,10.18
2023-05-13T21:52:23.328Z,9.70
2023-05-13T21:54:49.940Z,10.55
2023-05-13T21:57:16.835Z,10.73
2023-05-13T21:59:43.906Z,10.93
2023-05-13T22:02:10.558Z,10.25
2023-05-13T22:04:37.181Z,10.25
2023-05-13T22:07:03.835Z,10.88
2023-05-13T22:09:31.731Z,10.02
2023-05-13T22:11:58.553Z,10.38
2023-05-13T22:14:25.294Z,10.18
2023-05-13T22:17:07.197Z,9.75
2023-05-13T22:19:35.139Z,11.00
2023-05-13T22:22:01.774Z,11.00
2023-05-13T22:24:28.353Z,10.63
2023-05-13T22:26:55.016Z,9.90
2023-05-13T22:29:21.742Z,11.10
2023-05-13T22:31:48.496Z,10.45
2023-05-13T22:34:15.147Z,10.45
2023-05-13T22:36:43.939Z,10.15
2023-05-13T22:39:12.268Z,10.60
2023-05-13T22:41:38.932Z,9.43
2023-05-13T22:44:05.684Z,10.70
2023-05-13T22:46:32.562Z,10.90
2023-05-13T22:48:59.243Z,10.82
2023-05-13T22:51:25.872Z,11.38
2023-05-13T22:53:52.480Z,10.35
2023-05-13T22:56:19.109Z,11.40
2023-05-13T22:58:46.236Z,11.57
2023-05-13T23:01:13.034Z,11.90
2023-05-13T23:03:39.748Z,12.48
2023-05-13T23:06:06.537Z,11.60
2023-05-13T23:08:33.536Z,11.13
2023-05-13T23:11:00.141Z,11.15
2023-05-13T23:13:26.796Z,10.95
2023-05-13T23:15:53.493Z,11.68
2023-05-13T23:18:20.327Z,10.95
2023-05-13T23:20:51.709Z,11.18
2023-05-13T23:23:18.367Z,11.27
2023-05-13T23:25:45.887Z,11.55
2023-05-13T23:28:12.846Z,11.10
2023-05-13T23:30:39.851Z,11.68
2023-05-13T23:33:06.580Z,11.13
2023-05-13T23:35:33.490Z,11.38
2023-05-13T23:38:00.591Z,11.32
2023-05-13T23:40:27.712Z,11.43
2023-05-13T23:42:54.409Z,11.25
2023-05-13T23:45:21.504Z,10.95
2023-05-13T23:47:48.165Z,11.40
2023-05-13T23:50:14.893Z,11.85
2023-05-13T23:52:41.547Z,12.18
2023-05-13T23:55:08.341Z,12.27
2023-05-13T23:57:35.050Z,12.38
